createdAt,value
2022-08-10T00:00:36.209Z,0.00
2022-08-10T00:01:36.283Z,0.00
2022-08-10T00:02:36.450Z,0.00
2022-08-10T00:03:36.155Z,0.00
2022-08-10T00:04:36.141Z,0.00
2022-08-10T00:05:43.177Z,0.00
2022-08-10T00:06:36.114Z,0.00
2022-08-10T00:07:36.091Z,0.00
2022-08-10T00:08:36.107Z,0.00
2022-08-10T00:09:50.239Z,0.00
2022-08-10T00:10:36.038Z,0.00
2022-08-10T00:11:36.022Z,0.00
2022-08-10T00:12:53.715Z,0.00
2022-08-10T00:13:35.986Z,0.00
2022-08-10T00:14:35.967Z,0.00
2022-08-10T00:15:52.795Z,0.00
2022-08-10T00:16:35.937Z,0.00
2022-08-10T00:17:35.918Z,0.00
2022-08-10T00:18:36.439Z,0.00
2022-08-10T00:20:02.509Z,0.00
2022-08-10T00:20:35.865Z,0.00
2022-08-10T00:21:35.853Z,0.00
2022-08-10T00:22:36.097Z,0.00
2022-08-10T00:23:35.823Z,0.00
2022-08-10T00:24:39.113Z,0.00
2022-08-10T00:25:35.780Z,0.00
2022-08-10T00:27:52.007Z,0.00
2022-08-10T00:27:58.967Z,0.00
2022-08-10T00:28:35.729Z,0.00
2022-08-10T00:29:35.710Z,0.00
2022-08-10T00:30:35.689Z,0.00
2022-08-10T00:31:55.957Z,0.00
2022-08-10T00:32:41.756Z,0.00
2022-08-10T00:33:35.635Z,0.00
2022-08-10T00:34:35.630Z,0.00
2022-08-10T00:35:35.615Z,0.00
2022-08-10T00:36:35.582Z,0.00
2022-08-10T00:37:35.565Z,0.00
2022-08-10T00:38:35.563Z,0.00
2022-08-10T00:39:36.440Z,0.00
2022-08-10T00:40:37.841Z,0.00
2022-08-10T00:41:35.503Z,0.00
2022-08-10T00:42:35.722Z,0.00
2022-08-10T00:43:35.456Z,0.00
2022-08-10T00:44:35.445Z,0.00
2022-08-10T00:45:35.424Z,0.00
2022-08-10T00:46:35.408Z,0.00
2022-08-10T00:47:37.357Z,0.00
2022-08-10T00:48:35.368Z,0.00
2022-08-10T00:49:35.349Z,0.00
2022-08-10T00:50:35.339Z,0.00
2022-08-10T00:51:43.034Z,0.00
2022-08-10T00:52:35.512Z,0.00
2022-08-10T00:53:35.275Z,0.00
2022-08-10T00:54:35.260Z,0.00
2022-08-10T00:57:09.876Z,0.00
2022-08-10T00:57:15.154Z,0.00
2022-08-10T00:57:35.207Z,0.00
2022-08-10T00:58:35.204Z,0.00
2022-08-10T00:59:35.229Z,0.00
2022-08-10T01:00:35.150Z,0.00
2022-08-10T01:02:08.314Z,0.00
2022-08-10T01:02:35.409Z,0.00
2022-08-10T01:04:43.593Z,0.00
2022-08-10T01:04:57.892Z,0.00
2022-08-10T01:05:35.051Z,0.00
2022-08-10T01:06:35.042Z,0.00
2022-08-10T01:07:35.016Z,0.00
2022-08-10T01:08:35.003Z,0.00
2022-08-10T01:09:34.976Z,0.00
2022-08-10T01:10:34.976Z,0.00
2022-08-10T01:12:37.843Z,0.00
2022-08-10T01:12:40.351Z,0.00
2022-08-10T01:13:34.937Z,0.00
2022-08-10T01:14:34.895Z,0.00
2022-08-10T01:15:34.865Z,0.00
2022-08-10T01:16:34.852Z,0.00
2022-08-10T01:17:50.521Z,0.00
2022-08-10T01:18:37.647Z,0.00
2022-08-10T01:19:34.789Z,0.00
2022-08-10T01:20:34.773Z,0.00
2022-08-10T01:21:34.750Z,0.00
2022-08-10T01:22:34.930Z,0.00
2022-08-10T01:23:34.717Z,0.00
2022-08-10T01:24:34.695Z,0.00
2022-08-10T01:25:34.675Z,0.00
2022-08-10T01:26:37.205Z,0.00
2022-08-10T01:27:34.632Z,0.00
2022-08-10T01:28:34.617Z,0.00
2022-08-10T01:29:34.609Z,0.00
2022-08-10T01:30:34.591Z,0.00
2022-08-10T01:31:34.555Z,0.00
2022-08-10T01:32:34.729Z,0.00
2022-08-10T01:33:58.352Z,0.00
2022-08-10T01:34:34.499Z,0.00
2022-08-10T01:35:34.477Z,0.00
2022-08-10T01:36:34.469Z,0.00
2022-08-10T01:37:34.439Z,0.00
2022-08-10T01:38:34.431Z,0.00
2022-08-10T01:39:34.443Z,0.00
2022-08-10T01:40:34.377Z,0.00
2022-08-10T01:41:45.657Z,0.00
2022-08-10T01:42:34.515Z,0.00
2022-08-10T01:43:34.318Z,0.00
2022-08-10T01:44:34.301Z,0.00
2022-08-10T01:45:45.054Z,0.00
2022-08-10T01:46:34.257Z,0.00
2022-08-10T01:47:34.240Z,0.00
2022-08-10T01:48:34.221Z,0.00
2022-08-10T01:49:34.214Z,0.00
2022-08-10T01:50:34.178Z,0.00
2022-08-10T01:51:34.175Z,0.00
2022-08-10T01:52:34.379Z,0.00
2022-08-10T01:53:40.855Z,0.00
2022-08-10T01:54:34.100Z,0.00
2022-08-10T01:55:34.082Z,0.00
2022-08-10T01:56:34.064Z,0.00
2022-08-10T01:57:34.040Z,0.00
2022-08-10T01:58:34.026Z,0.00
2022-08-10T01:59:34.001Z,0.00
2022-08-10T02:00:33.975Z,0.00
2022-08-10T02:01:33.987Z,0.00
2022-08-10T02:02:34.137Z,0.00
2022-08-10T02:03:33.915Z,0.00
2022-08-10T02:04:33.901Z,0.00
2022-08-10T02:05:33.899Z,0.00
2022-08-10T02:06:33.857Z,0.00
2022-08-10T02:07:33.830Z,0.00
2022-08-10T02:08:33.820Z,0.00
2022-08-10T02:09:33.793Z,0.00
2022-08-10T02:10:33.772Z,0.00
2022-08-10T02:11:55.699Z,0.00
2022-08-10T02:12:33.974Z,0.00
2022-08-10T02:13:33.709Z,0.00
2022-08-10T02:14:34.518Z,0.00
2022-08-10T02:15:33.680Z,0.00
2022-08-10T02:16:33.659Z,0.00
2022-08-10T02:17:57.900Z,0.00
2022-08-10T02:18:33.613Z,0.00
2022-08-10T02:19:33.601Z,0.00
2022-08-10T02:20:33.609Z,0.00
2022-08-10T02:21:33.551Z,0.00
2022-08-10T02:22:37.890Z,0.00
2022-08-10T02:23:33.517Z,0.00
2022-08-10T02:24:33.482Z,0.00
2022-08-10T02:25:41.910Z,0.00
2022-08-10T02:26:33.462Z,0.00
2022-08-10T02:27:33.436Z,0.00
2022-08-10T02:28:33.399Z,0.00
2022-08-10T02:29:33.378Z,0.00
2022-08-10T02:30:33.357Z,0.00
2022-08-10T02:31:33.338Z,0.00
2022-08-10T02:32:36.588Z,0.00
2022-08-10T02:33:33.297Z,0.00
2022-08-10T02:34:33.273Z,0.00
2022-08-10T02:35:53.848Z,0.00
2022-08-10T02:36:33.272Z,0.00
2022-08-10T02:37:33.232Z,0.00
2022-08-10T02:38:58.937Z,0.00
2022-08-10T02:39:33.207Z,0.00
2022-08-10T02:45:12.321Z,0.00
2022-08-10T02:45:15.945Z,0.00
2022-08-10T02:45:19.470Z,0.00
2022-08-10T02:45:21.966Z,0.00
2022-08-10T02:45:23.853Z,0.00
2022-08-10T02:45:33.791Z,0.00
2022-08-10T02:46:33.024Z,0.00
2022-08-10T02:47:51.202Z,0.00
2022-08-10T02:48:32.987Z,0.00
2022-08-10T02:49:32.970Z,0.00
2022-08-10T02:50:32.936Z,0.00
2022-08-10T02:52:07.291Z,0.00
2022-08-10T02:52:32.895Z,0.00
2022-08-10T02:53:55.268Z,0.00
2022-08-10T02:54:32.855Z,0.00
2022-08-10T02:55:32.887Z,0.00
2022-08-10T02:56:32.816Z,0.00
2022-08-10T02:57:32.788Z,0.00
2022-08-10T02:58:32.771Z,0.00
2022-08-10T02:59:40.155Z,0.00
2022-08-10T03:00:32.729Z,0.00
2022-08-10T03:01:32.777Z,0.00
2022-08-10T03:02:32.698Z,0.00
2022-08-10T03:03:32.664Z,0.00
2022-08-10T03:04:57.082Z,0.00
2022-08-10T03:05:32.621Z,0.00
2022-08-10T03:06:32.622Z,0.00
2022-08-10T03:07:44.496Z,0.00
2022-08-10T03:08:32.554Z,0.00
2022-08-10T03:09:32.552Z,0.00
2022-08-10T03:10:32.525Z,0.00
2022-08-10T03:12:35.858Z,0.00
2022-08-10T03:12:37.603Z,0.00
2022-08-10T03:13:32.490Z,0.00
2022-08-10T03:14:32.427Z,0.00
2022-08-10T03:15:32.410Z,0.00
2022-08-10T03:16:33.240Z,0.00
2022-08-10T03:17:32.365Z,0.00
2022-08-10T03:18:32.343Z,0.00
2022-08-10T03:20:33.594Z,0.00
2022-08-10T03:20:37.446Z,0.00
2022-08-10T03:21:32.279Z,0.00
2022-08-10T03:22:32.265Z,0.00
2022-08-10T03:23:32.247Z,0.00
2022-08-10T03:24:33.256Z,0.00
2022-08-10T03:25:32.190Z,0.00
2022-08-10T03:26:32.186Z,0.00
2022-08-10T03:27:32.151Z,0.00
2022-08-10T03:28:32.129Z,0.00
2022-08-10T03:30:29.359Z,0.00
2022-08-10T03:30:34.150Z,0.00
2022-08-10T03:31:32.064Z,0.00
2022-08-10T03:32:32.094Z,0.00
2022-08-10T03:33:32.031Z,0.00
2022-08-10T03:34:33.589Z,0.00
2022-08-10T03:35:31.986Z,0.00
2022-08-10T03:36:43.890Z,0.00
2022-08-10T03:37:31.952Z,0.00
2022-08-10T03:38:31.911Z,0.00
2022-08-10T03:39:31.935Z,0.00
2022-08-10T03:40:45.492Z,0.00
2022-08-10T03:41:35.423Z,0.00
2022-08-10T03:42:31.885Z,0.00
2022-08-10T03:43:31.805Z,0.00
2022-08-10T03:44:31.786Z,0.00
2022-08-10T03:45:31.782Z,0.00
2022-08-10T03:46:31.755Z,0.00
2022-08-10T03:47:31.718Z,0.00
2022-08-10T03:48:46.944Z,0.00
2022-08-10T03:49:31.671Z,0.00
2022-08-10T03:50:51.400Z,0.00
2022-08-10T03:51:31.639Z,0.00
2022-08-10T03:52:31.664Z,0.00
2022-08-10T03:54:02.777Z,0.00
2022-08-10T03:54:31.567Z,0.00
2022-08-10T03:56:27.294Z,0.00
2022-08-10T03:56:32.615Z,0.00
2022-08-10T03:57:31.497Z,0.00
2022-08-10T03:58:31.490Z,0.00
2022-08-10T03:59:31.467Z,0.00
2022-08-10T04:00:31.452Z,0.00
2022-08-10T04:02:44.654Z,5.63
2022-08-10T04:02:45.313Z,5.63
2022-08-10T04:03:31.371Z,5.63
2022-08-10T04:04:31.350Z,5.63
2022-08-10T04:05:38.561Z,5.63
2022-08-10T04:06:31.320Z,5.63
2022-08-10T04:07:31.282Z,5.63
2022-08-10T04:08:31.262Z,5.63
2022-08-10T04:09:53.619Z,11.25
2022-08-10T04:10:31.215Z,11.25
2022-08-10T04:11:31.199Z,11.25
2022-08-10T04:12:31.175Z,11.25
2022-08-10T04:13:31.151Z,11.25
2022-08-10T04:14:38.597Z,16.88
2022-08-10T04:15:31.113Z,16.88
2022-08-10T04:16:31.091Z,16.88
2022-08-10T04:17:59.366Z,16.88
2022-08-10T04:18:31.046Z,16.88
2022-08-10T04:19:31.023Z,22.50
2022-08-10T04:20:34.429Z,22.50
2022-08-10T04:21:30.981Z,22.50
2022-08-10T04:22:30.961Z,22.50
2022-08-10T04:23:30.935Z,22.50
2022-08-10T04:24:33.008Z,28.13
2022-08-10T04:25:30.915Z,28.13
2022-08-10T04:26:30.882Z,28.13
2022-08-10T04:27:30.851Z,28.13
2022-08-10T04:28:30.847Z,33.75
2022-08-10T04:29:30.803Z,33.75
2022-08-10T04:30:30.785Z,33.75
2022-08-10T04:31:30.759Z,33.75
2022-08-10T04:32:30.735Z,33.75
2022-08-10T04:33:30.713Z,39.38
2022-08-10T04:34:30.700Z,39.38
2022-08-10T04:35:30.673Z,39.38
2022-08-10T04:36:30.654Z,39.38
2022-08-10T04:37:30.629Z,45.00
2022-08-10T04:38:30.609Z,45.00
2022-08-10T04:39:30.649Z,45.00
2022-08-10T04:40:31.195Z,45.00
2022-08-10T04:41:30.544Z,45.00
2022-08-10T04:42:30.520Z,50.63
2022-08-10T04:43:30.497Z,50.63
2022-08-10T04:44:30.479Z,50.63
2022-08-10T04:45:49.650Z,50.63
2022-08-10T04:46:55.782Z,50.63
2022-08-10T04:47:51.179Z,56.25
2022-08-10T04:48:40.781Z,56.25
2022-08-10T04:49:54.632Z,56.25
2022-08-10T04:50:30.345Z,56.25
2022-08-10T04:51:30.325Z,56.25
2022-08-10T04:52:30.302Z,61.88
2022-08-10T04:53:30.287Z,61.88
2022-08-10T04:54:30.257Z,61.88
2022-08-10T04:55:30.242Z,61.88
2022-08-10T04:56:32.121Z,67.50
2022-08-10T04:57:30.198Z,67.50
2022-08-10T04:58:30.177Z,67.50
2022-08-10T04:59:30.153Z,73.13
2022-08-10T05:00:30.161Z,73.13
2022-08-10T05:02:21.449Z,73.13
2022-08-10T05:02:32.142Z,78.75
2022-08-10T05:03:30.068Z,78.75
2022-08-10T05:04:38.540Z,78.75
2022-08-10T05:05:30.026Z,78.75
2022-08-10T05:06:30.007Z,84.38
2022-08-10T05:07:29.980Z,84.38
2022-08-10T05:08:29.966Z,84.38
2022-08-10T05:09:29.931Z,84.38
2022-08-10T05:10:29.914Z,90.00
2022-08-10T05:11:29.893Z,90.00
2022-08-10T05:12:29.873Z,90.00
2022-08-10T05:13:29.847Z,90.00
2022-08-10T05:14:29.833Z,90.00
2022-08-10T05:15:29.812Z,95.63
2022-08-10T05:16:31.798Z,95.63
2022-08-10T05:17:29.773Z,95.63
2022-08-10T05:18:29.741Z,95.63
2022-08-10T05:20:04.120Z,95.63
2022-08-10T05:20:29.701Z,101.25
2022-08-10T05:21:59.837Z,101.25
2022-08-10T05:22:29.656Z,101.25
2022-08-10T05:23:29.636Z,101.25
2022-08-10T05:24:29.619Z,101.25
2022-08-10T05:25:29.594Z,106.88
2022-08-10T05:26:29.574Z,106.88
2022-08-10T05:27:29.548Z,106.88
2022-08-10T05:28:32.596Z,106.88
2022-08-10T05:29:29.508Z,106.88
2022-08-10T05:30:29.488Z,106.88
2022-08-10T05:31:29.468Z,106.88
2022-08-10T05:32:29.455Z,106.88
2022-08-10T05:33:29.432Z,106.88
2022-08-10T05:34:29.430Z,106.88
2022-08-10T05:35:52.943Z,106.88
2022-08-10T05:36:29.364Z,106.88
2022-08-10T05:38:12.962Z,106.88
2022-08-10T05:38:29.325Z,112.50
2022-08-10T05:39:32.060Z,112.50
2022-08-10T05:40:29.278Z,112.50
2022-08-10T05:41:29.270Z,112.50
2022-08-10T05:42:29.239Z,112.50
2022-08-10T05:43:29.219Z,112.50
2022-08-10T05:44:29.202Z,112.50
2022-08-10T05:45:29.184Z,118.13
2022-08-10T05:46:29.155Z,118.13
2022-08-10T05:47:29.185Z,118.13
2022-08-10T05:48:57.176Z,123.75
2022-08-10T05:49:29.111Z,129.38
2022-08-10T05:50:29.071Z,129.38
2022-08-10T05:51:29.053Z,129.38
2022-08-10T05:52:29.032Z,135.00
2022-08-10T05:53:58.737Z,140.63
2022-08-10T05:54:28.991Z,135.00
2022-08-10T05:55:28.968Z,129.38
2022-08-10T05:56:55.937Z,123.75
2022-08-10T05:57:28.960Z,123.75
2022-08-10T05:58:28.913Z,129.38
2022-08-10T06:00:10.869Z,140.63
2022-08-10T06:00:37.451Z,157.50
2022-08-10T06:01:28.878Z,146.25
2022-08-10T06:02:33.507Z,135.00
2022-08-10T06:03:28.815Z,129.38
2022-08-10T06:04:28.816Z,129.38
2022-08-10T06:05:28.769Z,129.38
2022-08-10T06:06:28.774Z,129.38
2022-08-10T06:07:28.805Z,129.38
2022-08-10T06:08:28.731Z,129.38
2022-08-10T06:09:28.687Z,129.38
2022-08-10T06:10:31.969Z,129.38
2022-08-10T06:12:24.102Z,135.00
2022-08-10T06:12:30.073Z,135.00
2022-08-10T06:13:34.320Z,135.00
2022-08-10T06:14:28.644Z,135.00
2022-08-10T06:15:52.325Z,135.00
2022-08-10T06:16:28.568Z,135.00
2022-08-10T06:17:28.549Z,135.00
2022-08-10T06:18:28.518Z,135.00
2022-08-10T06:19:28.497Z,135.00
2022-08-10T06:20:31.670Z,135.00
2022-08-10T06:21:28.475Z,135.00
2022-08-10T06:22:28.485Z,140.63
2022-08-10T06:23:28.422Z,140.63
2022-08-10T06:24:30.684Z,140.63
2022-08-10T06:26:09.961Z,140.63
2022-08-10T06:26:28.363Z,140.63
2022-08-10T06:27:34.754Z,140.63
2022-08-10T06:28:28.338Z,140.63
2022-08-10T06:29:28.318Z,140.63
2022-08-10T06:30:28.290Z,140.63
2022-08-10T06:31:31.734Z,140.63
2022-08-10T06:32:28.253Z,146.25
2022-08-10T06:33:28.233Z,146.25
2022-08-10T06:34:28.217Z,146.25
2022-08-10T06:35:28.199Z,146.25
2022-08-10T06:36:28.190Z,146.25
2022-08-10T06:37:28.159Z,146.25
2022-08-10T06:38:28.141Z,146.25
2022-08-10T06:39:36.478Z,146.25
2022-08-10T06:40:28.152Z,146.25
2022-08-10T06:42:14.934Z,146.25
2022-08-10T06:42:28.131Z,146.25
2022-08-10T06:43:28.050Z,146.25
2022-08-10T06:44:28.032Z,151.88
2022-08-10T06:45:28.014Z,151.88
2022-08-10T06:46:27.997Z,151.88
2022-08-10T06:47:27.983Z,151.88
2022-08-10T06:48:27.961Z,151.88
2022-08-10T06:49:27.956Z,151.88
2022-08-10T06:50:45.025Z,151.88
2022-08-10T06:51:27.909Z,151.88
2022-08-10T06:52:27.888Z,151.88
2022-08-10T06:53:52.312Z,151.88
2022-08-10T06:54:27.858Z,157.50
2022-08-10T06:55:49.848Z,157.50
2022-08-10T06:56:38.134Z,157.50
2022-08-10T06:57:27.813Z,157.50
2022-08-10T06:58:27.804Z,157.50
2022-08-10T06:59:27.777Z,157.50
2022-08-10T07:00:32.445Z,157.50
2022-08-10T07:01:27.795Z,157.50
2022-08-10T07:02:27.737Z,163.13
2022-08-10T07:03:27.708Z,163.13
2022-08-10T07:04:32.384Z,168.75
2022-08-10T07:05:27.671Z,174.38
2022-08-10T07:06:27.653Z,185.63
2022-08-10T07:07:27.829Z,191.25
2022-08-10T07:08:27.623Z,185.63
2022-08-10T07:09:27.609Z,191.25
2022-08-10T07:10:41.091Z,202.50
2022-08-10T07:11:27.580Z,208.13
2022-08-10T07:12:27.644Z,208.13
2022-08-10T07:14:15.695Z,213.75
2022-08-10T07:14:27.532Z,219.38
2022-08-10T07:15:59.303Z,219.38
2022-08-10T07:16:27.505Z,202.50
2022-08-10T07:17:27.483Z,191.25
2022-08-10T07:18:27.467Z,202.50
2022-08-10T07:19:27.462Z,213.75
2022-08-10T07:20:27.463Z,225.00
2022-08-10T07:21:27.437Z,230.63
2022-08-10T07:23:27.372Z,230.63
2022-08-10T07:23:58.871Z,230.63
2022-08-10T07:24:27.380Z,230.63
2022-08-10T07:25:27.384Z,230.63
2022-08-10T07:26:27.347Z,225.00
2022-08-10T07:27:27.334Z,225.00
2022-08-10T07:28:27.322Z,225.00
2022-08-10T07:29:53.981Z,225.00
2022-08-10T07:30:27.299Z,225.00
2022-08-10T07:31:29.749Z,225.00
2022-08-10T07:32:27.279Z,225.00
2022-08-10T07:33:27.255Z,225.00
2022-08-10T07:34:29.302Z,225.00
2022-08-10T07:35:27.239Z,225.00
2022-08-10T07:36:27.215Z,225.00
2022-08-10T07:37:27.204Z,225.00
2022-08-10T07:38:27.190Z,225.00
2022-08-10T07:40:03.629Z,225.00
2022-08-10T07:40:27.227Z,225.00
2022-08-10T07:41:27.169Z,225.00
2022-08-10T07:42:27.157Z,225.00
2022-08-10T07:43:27.132Z,230.63
2022-08-10T07:44:27.119Z,230.63
2022-08-10T07:45:27.107Z,225.00
2022-08-10T07:46:27.103Z,225.00
2022-08-10T07:47:52.810Z,225.00
2022-08-10T07:48:27.095Z,225.00
2022-08-10T07:49:27.057Z,225.00
2022-08-10T07:50:28.447Z,230.63
2022-08-10T07:51:27.032Z,230.63
2022-08-10T07:52:27.064Z,230.63
2022-08-10T07:53:27.013Z,230.63
2022-08-10T07:54:27.011Z,230.63
2022-08-10T07:56:05.506Z,230.63
2022-08-10T07:56:47.933Z,230.63
2022-08-10T07:57:30.959Z,236.25
2022-08-10T07:58:26.970Z,236.25
2022-08-10T07:59:26.942Z,236.25
2022-08-10T08:00:26.933Z,236.25
2022-08-10T08:01:26.959Z,236.25
2022-08-10T08:02:26.947Z,236.25
2022-08-10T08:03:26.907Z,236.25
2022-08-10T08:04:26.910Z,236.25
2022-08-10T08:05:57.734Z,236.25
2022-08-10T08:06:26.868Z,236.25
2022-08-10T08:07:26.859Z,241.88
2022-08-10T08:08:28.752Z,236.25
2022-08-10T08:09:26.842Z,236.25
2022-08-10T08:10:26.831Z,236.25
2022-08-10T08:11:26.839Z,236.25
2022-08-10T08:12:26.871Z,236.25
2022-08-10T08:13:26.803Z,241.88
2022-08-10T08:14:26.790Z,241.88
2022-08-10T08:16:18.437Z,241.88
2022-08-10T08:16:26.788Z,241.88
2022-08-10T08:17:36.319Z,241.88
2022-08-10T08:18:26.751Z,241.88
2022-08-10T08:19:28.539Z,241.88
2022-08-10T08:20:26.731Z,241.88
2022-08-10T08:24:07.380Z,241.88
2022-08-10T08:24:08.455Z,241.88
2022-08-10T08:24:08.801Z,241.88
2022-08-10T08:24:30.350Z,247.50
2022-08-10T08:25:26.694Z,241.88
2022-08-10T08:26:26.677Z,241.88
2022-08-10T08:27:26.678Z,247.50
2022-08-10T08:28:26.669Z,247.50
2022-08-10T08:29:26.661Z,247.50
2022-08-10T08:30:26.727Z,247.50
2022-08-10T08:31:26.633Z,247.50
2022-08-10T08:32:26.633Z,247.50
2022-08-10T08:33:41.927Z,247.50
2022-08-10T08:34:26.613Z,247.50
2022-08-10T08:35:26.595Z,247.50
2022-08-10T08:36:26.594Z,253.13
2022-08-10T08:38:26.609Z,253.13
2022-08-10T08:38:31.322Z,253.13
2022-08-10T08:39:26.675Z,253.13
2022-08-10T08:40:26.548Z,253.13
2022-08-10T08:41:26.542Z,258.75
2022-08-10T08:42:26.566Z,253.13
2022-08-10T08:43:31.253Z,253.13
2022-08-10T08:44:26.546Z,253.13
2022-08-10T08:45:26.513Z,258.75
2022-08-10T08:46:26.510Z,258.75
2022-08-10T08:48:04.049Z,258.75
2022-08-10T08:48:26.515Z,258.75
2022-08-10T08:50:07.536Z,258.75
2022-08-10T08:50:26.472Z,264.38
2022-08-10T08:52:06.285Z,258.75
2022-08-10T08:52:26.442Z,258.75
2022-08-10T08:54:02.122Z,258.75
2022-08-10T08:54:26.438Z,258.75
2022-08-10T08:56:03.520Z,258.75
2022-08-10T08:56:26.413Z,258.75
2022-08-10T08:57:50.679Z,258.75
2022-08-10T08:58:26.389Z,258.75
2022-08-10T08:59:26.397Z,258.75
2022-08-10T09:00:26.380Z,258.75
2022-08-10T09:01:40.380Z,264.38
2022-08-10T09:02:26.353Z,258.75
2022-08-10T09:03:28.348Z,264.38
2022-08-10T09:04:26.350Z,264.38
2022-08-10T09:05:26.332Z,264.38
2022-08-10T09:06:26.325Z,270.00
2022-08-10T09:07:59.470Z,270.00
2022-08-10T09:08:26.306Z,270.00
2022-08-10T09:09:26.323Z,270.00
2022-08-10T09:10:26.299Z,275.63
2022-08-10T09:11:26.306Z,275.63
2022-08-10T09:12:26.525Z,275.63
2022-08-10T09:13:26.278Z,275.63
2022-08-10T09:14:26.265Z,281.25
2022-08-10T09:15:39.547Z,281.25
2022-08-10T09:16:26.236Z,281.25
2022-08-10T09:17:26.255Z,286.88
2022-08-10T09:18:26.289Z,292.50
2022-08-10T09:19:35.554Z,303.75
2022-08-10T09:20:26.205Z,309.38
2022-08-10T09:21:26.221Z,303.75
2022-08-10T09:22:26.189Z,303.75
2022-08-10T09:24:04.857Z,303.75
2022-08-10T09:24:26.227Z,309.38
2022-08-10T09:25:26.172Z,309.38
2022-08-10T09:26:26.280Z,309.38
2022-08-10T09:27:26.132Z,326.25
2022-08-10T09:28:26.477Z,337.50
2022-08-10T09:29:26.133Z,343.13
2022-08-10T09:30:31.150Z,343.13
2022-08-10T09:31:26.213Z,343.13
2022-08-10T09:36:16.855Z,343.13
2022-08-10T09:36:20.836Z,365.63
2022-08-10T09:36:20.904Z,382.50
2022-08-10T09:36:21.260Z,354.38
2022-08-10T09:36:32.344Z,393.75
2022-08-10T09:38:01.162Z,354.38
2022-08-10T09:38:26.044Z,348.75
2022-08-10T09:40:12.319Z,511.88
2022-08-10T09:40:59.728Z,348.75
2022-08-10T09:41:26.068Z,326.25
2022-08-10T09:42:26.004Z,444.38
2022-08-10T09:43:26.670Z,506.25
2022-08-10T09:44:25.986Z,517.50
2022-08-10T09:45:25.977Z,551.25
2022-08-10T09:46:27.704Z,562.50
2022-08-10T09:47:40.197Z,478.13
2022-08-10T09:48:25.951Z,495.00
2022-08-10T09:49:52.949Z,466.88
2022-08-10T09:50:25.938Z,303.75
2022-08-10T09:51:44.888Z,309.38
2022-08-10T09:52:25.920Z,286.88
2022-08-10T09:53:25.905Z,343.13
2022-08-10T09:54:25.906Z,500.63
2022-08-10T09:56:18.579Z,562.50
2022-08-10T09:56:28.910Z,540.00
2022-08-10T09:57:41.341Z,641.25
2022-08-10T09:58:25.866Z,601.88
2022-08-10T09:59:27.130Z,534.38
2022-08-10T10:00:25.851Z,506.25
2022-08-10T10:01:58.000Z,495.00
2022-08-10T10:02:25.880Z,478.13
2022-08-10T10:03:26.313Z,461.25
2022-08-10T10:04:25.838Z,466.88
2022-08-10T10:05:25.824Z,275.63
2022-08-10T10:06:25.799Z,303.75
2022-08-10T10:07:25.791Z,534.38
2022-08-10T10:08:25.783Z,382.50
2022-08-10T10:09:26.824Z,573.75
2022-08-10T10:10:25.766Z,556.88
2022-08-10T10:11:25.758Z,556.88
2022-08-10T10:12:25.762Z,556.88
2022-08-10T10:13:50.026Z,545.63
2022-08-10T10:14:25.730Z,540.00
2022-08-10T10:15:26.108Z,545.63
2022-08-10T10:16:25.722Z,568.13
2022-08-10T10:17:25.715Z,568.13
2022-08-10T10:18:25.727Z,579.38
2022-08-10T10:19:25.709Z,596.25
2022-08-10T10:20:25.718Z,613.13
2022-08-10T10:21:54.639Z,635.63
2022-08-10T10:22:25.668Z,658.13
2022-08-10T10:23:25.671Z,675.00
2022-08-10T10:24:25.657Z,703.13
2022-08-10T10:25:25.647Z,731.25
2022-08-10T10:26:25.640Z,765.00
2022-08-10T10:27:25.654Z,810.00
2022-08-10T10:28:25.629Z,871.88
2022-08-10T10:29:58.800Z,928.13
2022-08-10T10:30:25.614Z,978.75
2022-08-10T10:31:25.603Z,1063.13
2022-08-10T10:32:25.594Z,1186.88
2022-08-10T10:33:25.589Z,1310.63
2022-08-10T10:34:25.581Z,1395.00
2022-08-10T10:35:25.580Z,1485.00
2022-08-10T10:36:25.567Z,1580.63
2022-08-10T10:38:00.804Z,1659.38
2022-08-10T10:38:25.561Z,1710.00
2022-08-10T10:39:25.592Z,1777.50
2022-08-10T10:40:25.541Z,1839.38
2022-08-10T10:41:25.550Z,1901.25
2022-08-10T10:42:44.239Z,1968.75
2022-08-10T10:43:25.527Z,2013.75
2022-08-10T10:44:25.520Z,2047.50
2022-08-10T10:45:25.517Z,2086.88
2022-08-10T10:46:25.530Z,2115.00
2022-08-10T10:47:25.506Z,2137.50
2022-08-10T10:48:29.347Z,2171.25
2022-08-10T10:49:25.515Z,2165.63
2022-08-10T10:50:25.489Z,2193.75
2022-08-10T10:51:25.488Z,2221.88
2022-08-10T10:52:25.479Z,2233.13
2022-08-10T10:53:25.473Z,2002.50
2022-08-10T10:54:25.469Z,2250.00
2022-08-10T10:55:25.476Z,2255.63
2022-08-10T10:56:25.458Z,2261.25
2022-08-10T10:57:58.656Z,2362.50
2022-08-10T10:58:28.455Z,2311.88
2022-08-10T10:59:56.477Z,2340.00
2022-08-10T11:00:25.447Z,2362.50
2022-08-10T11:01:25.505Z,2379.38
2022-08-10T11:02:25.429Z,2356.88
2022-08-10T11:03:25.423Z,2396.25
2022-08-10T11:04:25.437Z,2413.13
2022-08-10T11:05:25.416Z,2390.63
2022-08-10T11:06:39.460Z,2390.63
2022-08-10T11:07:40.238Z,2407.50
2022-08-10T11:08:28.744Z,2407.50
2022-08-10T11:10:03.998Z,2396.25
2022-08-10T11:10:32.748Z,2407.50
2022-08-10T11:12:00.057Z,2373.75
2022-08-10T11:12:26.136Z,2373.75
2022-08-10T11:14:26.142Z,2390.63
2022-08-10T11:14:29.381Z,2385.00
2022-08-10T11:15:25.396Z,2396.25
2022-08-10T11:16:25.390Z,2368.13
2022-08-10T11:17:25.376Z,2446.88
2022-08-10T11:18:25.372Z,2452.50
2022-08-10T11:19:25.366Z,2520.00
2022-08-10T11:20:25.371Z,2576.25
2022-08-10T11:21:25.367Z,2593.13
2022-08-10T11:22:25.363Z,2002.50
2022-08-10T11:23:25.363Z,1479.38
2022-08-10T11:24:48.090Z,1091.25
2022-08-10T11:25:25.356Z,2958.75
2022-08-10T11:26:25.359Z,2891.25
2022-08-10T11:27:25.342Z,2941.88
2022-08-10T11:28:25.345Z,2902.50
2022-08-10T11:29:25.335Z,2902.50
2022-08-10T11:30:25.334Z,2913.75
2022-08-10T11:31:25.342Z,2913.75
2022-08-10T11:32:25.332Z,2806.88
2022-08-10T11:33:32.722Z,2919.38
2022-08-10T11:34:47.136Z,2801.25
2022-08-10T11:35:25.315Z,3099.38
2022-08-10T11:36:25.314Z,1828.13
2022-08-10T11:37:25.313Z,1878.75
2022-08-10T11:38:30.059Z,3211.88
2022-08-10T11:39:25.351Z,3183.75
2022-08-10T11:40:25.316Z,3093.75
2022-08-10T11:42:09.118Z,2328.75
2022-08-10T11:42:33.449Z,759.38
2022-08-10T11:43:25.301Z,3245.63
2022-08-10T11:44:25.294Z,3313.13
2022-08-10T11:45:25.286Z,3307.50
2022-08-10T11:46:28.701Z,3223.13
2022-08-10T11:47:25.285Z,3273.75
2022-08-10T11:48:54.406Z,3307.50
2022-08-10T11:49:25.349Z,3296.25
2022-08-10T11:50:25.281Z,3217.50
2022-08-10T11:51:25.272Z,3358.13
2022-08-10T11:52:25.269Z,3251.25
2022-08-10T11:53:25.272Z,1389.38
2022-08-10T11:54:25.273Z,2041.88
2022-08-10T11:55:25.275Z,686.25
2022-08-10T11:56:25.268Z,1614.38
2022-08-10T11:57:25.270Z,3504.38
2022-08-10T11:58:25.390Z,3588.75
2022-08-10T11:59:25.254Z,3487.50
2022-08-10T12:00:25.259Z,3549.38
2022-08-10T12:01:25.247Z,3538.13
2022-08-10T12:02:25.298Z,3571.88
2022-08-10T12:03:25.240Z,3510.00
2022-08-10T12:04:25.246Z,3560.63
2022-08-10T12:05:53.876Z,3566.25
2022-08-10T12:06:54.043Z,3324.38
2022-08-10T12:10:02.350Z,3549.38
2022-08-10T12:10:07.123Z,3583.13
2022-08-10T12:10:08.473Z,2047.50
2022-08-10T12:10:25.228Z,2373.75
2022-08-10T12:11:25.599Z,3684.38
2022-08-10T12:12:25.230Z,3313.13
2022-08-10T12:13:25.222Z,3673.13
2022-08-10T12:14:25.225Z,3583.13
2022-08-10T12:15:25.228Z,3791.25
2022-08-10T12:16:25.240Z,3729.38
2022-08-10T12:17:25.217Z,3735.00
2022-08-10T12:18:25.226Z,3751.88
2022-08-10T12:19:25.224Z,3751.88
2022-08-10T12:20:25.222Z,3718.13
2022-08-10T12:21:25.214Z,3695.63
2022-08-10T12:22:25.209Z,3735.00
2022-08-10T12:23:25.227Z,3735.00
2022-08-10T12:24:25.213Z,3695.63
2022-08-10T12:25:56.489Z,3678.75
2022-08-10T12:26:25.229Z,3729.38
2022-08-10T12:27:25.209Z,3678.75
2022-08-10T12:28:49.269Z,3645.00
2022-08-10T12:29:25.556Z,3678.75
2022-08-10T12:30:25.222Z,3656.25
2022-08-10T12:31:25.198Z,3673.13
2022-08-10T12:32:25.785Z,3661.88
2022-08-10T12:33:25.206Z,3661.88
2022-08-10T12:34:25.196Z,3678.75
2022-08-10T12:35:26.239Z,3661.88
2022-08-10T12:36:25.200Z,3645.00
2022-08-10T12:37:25.198Z,3633.75
2022-08-10T12:38:25.198Z,3577.50
2022-08-10T12:39:25.274Z,3667.50
2022-08-10T12:40:35.725Z,3661.88
2022-08-10T12:41:43.599Z,3656.25
2022-08-10T12:42:37.128Z,3628.13